Time;durP1;ratioP1;P1;durP2;ratioP2;P2;SDS_P1;SDS_P2;PMS_P1;PMS_P2;Temp;Humidity;BMP_temperature;BMP_pressure;BME280_temperature;BME280_humidity;BME280_pressure;Samples;Min_cycle;Max_cycle;Signal;HPM_P1;HPM_P2
2021/12/24 00:01:38;;;;;;;28.33;13.20;;;;;;;10.94;69.26;100371.03;5183183;28;20419;-43
2021/12/24 00:04:10;;;;;;;28.73;14.23;;;;;;;10.95;69.24;100372.69;5197103;28;20424;-43
2021/12/24 00:06:43;;;;;;;29.90;13.98;;;;;;;10.98;69.49;100377.63;5191898;28;20414;-44
2021/12/24 00:09:21;;;;;;;31.98;15.35;;;;;;;10.97;69.38;100365.41;5189664;28;20778;-44
2021/12/24 00:11:58;;;;;;;30.38;15.20;;;;;;;10.98;69.40;100372.34;5194767;28;20499;-46
2021/12/24 00:14:32;;;;;;;36.38;16.63;;;;;;;10.99;69.52;100373.16;5194722;28;20901;-45
2021/12/24 00:17:05;;;;;;;34.17;15.67;;;;;;;10.94;69.43;100360.47;5203376;28;20424;-44
2021/12/24 00:19:45;;;;;;;36.67;15.10;;;;;;;11.03;69.43;100372.69;5180591;28;20415;-48
2021/12/24 00:22:43;;;;;;;27.33;14.57;;;;;;;11.05;69.38;100368.06;5192325;28;20883;-44
2021/12/24 00:36:33;;;;;;;43.03;20.55;;;;;;;11.17;69.42;100349.22;5162731;28;20524;-43
2021/12/24 00:39:06;;;;;;;53.33;24.63;;;;;;;11.17;69.53;100359.81;5174351;28;20418;-48
2021/12/24 00:41:40;;;;;;;68.00;27.15;;;;;;;11.19;69.57;100352.56;5173911;28;20436;-44
2021/12/24 00:44:14;;;;;;;55.03;25.23;;;;;;;11.23;69.23;100353.84;5167837;28;20412;-43
2021/12/24 00:46:46;;;;;;;64.28;27.80;;;;;;;11.26;69.49;100359.63;5177857;28;20421;-43
2021/12/24 00:49:18;;;;;;;65.32;26.15;;;;;;;11.30;69.50;100357.47;5174675;28;20797;-43
2021/12/24 00:52:06;;;;;;;59.90;26.70;;;;;;;11.26;69.49;100342.97;5171880;28;20421;-45
2021/12/24 00:57:29;;;;;;;74.40;29.70;;;;;;;11.33;69.58;100354.50;5180014;28;20415;-45
2021/12/24 01:00:04;;;;;;;73.85;31.13;;;;;;;11.36;69.69;100361.28;5169145;28;20423;-43
2021/12/24 01:02:37;;;;;;;81.68;32.55;;;;;;;11.36;69.72;100354.16;5178018;28;20416;-46
2021/12/24 01:05:10;;;;;;;73.25;30.40;;;;;;;11.38;69.70;100346.91;5180495;28;20414;-45
2021/12/24 01:07:45;;;;;;;75.45;31.92;;;;;;;11.40;69.58;100349.41;5173516;28;20413;-43
2021/12/24 01:10:21;;;;;;;84.15;31.48;;;;;;;11.40;69.71;100358.16;5184918;28;20407;-43
2021/12/24 01:12:53;;;;;;;71.95;30.30;;;;;;;11.39;69.65;100348.56;5184644;28;20430;-43
2021/12/24 01:15:29;;;;;;;80.20;32.08;;;;;;;11.37;69.72;100345.28;5176871;28;20775;-43
2021/12/24 01:18:08;;;;;;;77.63;32.13;;;;;;;11.41;69.69;100349.22;5184430;28;20419;-43
2021/12/24 01:20:45;;;;;;;74.43;31.60;;;;;;;11.33;69.61;100338.63;5174274;28;20399;-43
2021/12/24 01:26:10;;;;;;;79.25;30.08;;;;;;;11.46;69.71;100359.31;5200188;28;20415;-44
2021/12/24 01:29:02;;;;;;;77.55;30.10;;;;;;;11.48;69.89;100354.66;5203141;28;20405;-46
2021/12/24 01:40:20;;;;;;;82.95;31.35;;;;;;;11.47;69.74;100361.78;5197112;28;20434;-46
2021/12/24 01:42:54;;;;;;;75.50;30.35;;;;;;;11.47;69.87;100364.41;5203464;28;21087;-45
2021/12/24 01:45:29;;;;;;;75.88;29.60;;;;;;;11.47;69.86;100372.34;5202256;28;20431;-45
2021/12/24 01:48:07;;;;;;;80.30;29.60;;;;;;;11.48;69.86;100367.88;5201632;28;20418;-44
2021/12/24 01:50:42;;;;;;;72.63;28.90;;;;;;;11.48;69.86;100362.59;5204216;28;20517;-43
2021/12/24 01:53:17;;;;;;;76.95;29.40;;;;;;;11.46;69.88;100362.78;5203718;28;20915;-44
2021/12/24 01:55:54;;;;;;;67.95;28.00;;;;;;;11.49;69.93;100365.09;5202251;28;20431;-44
2021/12/24 01:58:28;;;;;;;65.05;26.23;;;;;;;11.48;69.82;100368.69;5205268;28;20406;-47
2021/12/24 02:01:00;;;;;;;65.65;25.42;;;;;;;11.26;69.88;100325.28;5203957;28;20431;-43
2021/12/24 02:03:34;;;;;;;60.05;25.08;;;;;;;11.50;69.96;100366.72;5200832;28;20411;-45
2021/12/24 02:06:06;;;;;;;64.43;24.27;;;;;;;11.49;69.88;100370.38;5204287;28;20409;-48
2021/12/24 02:08:39;;;;;;;66.50;24.50;;;;;;;11.49;70.03;100372.19;5204373;28;20496;-44
2021/12/24 02:11:12;;;;;;;65.45;25.15;;;;;;;11.49;69.93;100380.13;5201853;28;20428;-44
2021/12/24 02:13:44;;;;;;;61.22;22.95;;;;;;;11.50;70.01;100385.25;5203941;28;20405;-43
2021/12/24 02:16:24;;;;;;;64.78;24.23;;;;;;;11.49;69.88;100377.50;5199586;28;20422;-43
2021/12/24 02:30:21;;;;;;;49.47;19.55;;;;;;;11.46;70.14;100370.72;5203348;28;20884;-44
2021/12/24 02:32:53;;;;;;;52.97;21.20;;;;;;;11.44;70.10;100377.16;5205031;28;20416;-44
2021/12/24 02:35:26;;;;;;;62.10;20.73;;;;;;;11.43;70.14;100381.63;5201836;28;20419;-43
2021/12/24 02:38:00;;;;;;;51.15;19.17;;;;;;;11.46;70.14;100376.00;5206530;28;20409;-43
2021/12/24 02:40:33;;;;;;;51.45;19.55;;;;;;;11.47;70.02;100369.72;5200923;28;20404;-42
2021/12/24 02:43:11;;;;;;;54.13;19.67;;;;;;;11.47;70.16;100377.63;5202488;28;20892;-47
2021/12/24 02:45:46;;;;;;;53.90;18.60;;;;;;;11.49;70.09;100370.38;5203505;28;20433;-45
2021/12/24 02:54:00;;;;;;;43.63;19.13;;;;;;;11.46;70.03;100362.78;5203672;28;20484;-44
2021/12/24 02:56:36;;;;;;;47.90;19.35;;;;;;;11.49;70.01;100369.56;5201072;28;20828;-44
2021/12/24 02:59:12;;;;;;;51.35;18.95;;;;;;;11.50;70.00;100368.56;5198937;28;20513;-46
2021/12/24 03:01:49;;;;;;;42.42;18.58;;;;;;;11.45;70.21;100355.00;5204842;28;20438;-44
2021/12/24 03:04:22;;;;;;;45.93;18.87;;;;;;;11.52;69.88;100358.63;5200183;28;20428;-45
2021/12/24 03:06:54;;;;;;;49.63;17.60;;;;;;;11.50;69.95;100356.16;5204251;28;20402;-45
2021/12/24 03:09:28;;;;;;;55.47;17.98;;;;;;;11.51;70.00;100356.97;5200732;28;20966;-43
2021/12/24 03:12:00;;;;;;;49.22;18.80;;;;;;;11.51;69.90;100363.09;5200467;28;20398;-44
2021/12/24 03:14:33;;;;;;;49.25;16.92;;;;;;;11.49;69.88;100364.25;5201514;28;20556;-47
2021/12/24 03:17:10;;;;;;;59.17;17.75;;;;;;;11.48;69.83;100363.41;5202563;28;20417;-44
2021/12/24 03:19:44;;;;;;;45.95;17.85;;;;;;;11.45;70.13;100369.03;5196999;28;26039;-43
2021/12/24 03:22:33;;;;;;;52.67;16.95;;;;;;;11.47;70.12;100361.78;5198438;28;20423;-43
2021/12/24 03:25:08;;;;;;;45.22;17.42;;;;;;;11.44;69.99;100358.63;5162409;28;20896;-45
2021/12/24 03:27:41;;;;;;;49.30;17.95;;;;;;;11.47;69.97;100351.19;5173520;28;20423;-48
2021/12/24 03:30:14;;;;;;;46.53;18.17;;;;;;;11.39;70.07;100356.47;5173812;28;21291;-45
2021/12/24 03:32:46;;;;;;;48.38;18.42;;;;;;;11.44;70.07;100362.09;5174176;28;20413;-43
2021/12/24 03:35:18;;;;;;;46.80;18.08;;;;;;;11.43;70.08;100360.47;5162858;28;20774;-47
2021/12/24 03:37:51;;;;;;;49.35;15.88;;;;;;;11.43;70.04;100365.75;5172526;28;20757;-43
2021/12/24 03:40:24;;;;;;;41.05;16.90;;;;;;;11.44;70.04;100362.09;5161956;28;20445;-44
2021/12/24 03:42:57;;;;;;;54.55;17.63;;;;;;;11.45;69.92;100358.47;5174288;28;20430;-44
2021/12/24 03:45:36;;;;;;;49.42;16.63;;;;;;;11.48;69.91;100365.25;5172931;28;20767;-43
2021/12/24 03:48:16;;;;;;;54.57;17.27;;;;;;;11.47;69.96;100371.53;5178036;28;20771;-45
2021/12/24 03:50:57;;;;;;;55.22;16.17;;;;;;;11.45;69.99;100369.03;5167185;28;20428;-44
2021/12/24 03:56:21;;;;;;;56.33;17.20;;;;;;;11.39;70.07;100369.69;5171424;28;20509;-43
2021/12/24 03:58:53;;;;;;;43.60;15.88;;;;;;;11.36;70.04;100367.38;5174170;28;20427;-42
2021/12/24 04:01:26;;;;;;;48.80;16.93;;;;;;;11.33;70.03;100365.09;5159274;28;20461;-47
2021/12/24 04:03:59;;;;;;;39.35;14.82;;;;;;;11.36;70.09;100375.31;5171662;28;20869;-44
2021/12/24 04:06:31;;;;;;;53.42;15.95;;;;;;;11.35;70.04;100368.41;5174305;28;20411;-43
2021/12/24 04:09:05;;;;;;;40.80;15.45;;;;;;;11.32;70.01;100364.25;5178150;28;20417;-43
2021/12/24 04:11:40;;;;;;;42.80;14.98;;;;;;;11.28;70.01;100362.94;5171415;28;20905;-44
2021/12/24 04:14:12;;;;;;;39.05;13.93;;;;;;;11.34;69.96;100366.75;5173504;28;20462;-43
2021/12/24 04:16:45;;;;;;;42.92;14.45;;;;;;;11.32;69.94;100366.09;5173792;28;20419;-44
2021/12/24 04:19:36;;;;;;;45.13;14.50;;;;;;;11.29;69.93;100364.59;5172847;28;20897;-49
2021/12/24 04:24:59;;;;;;;38.17;12.75;;;;;;;11.25;70.15;100373.84;5180238;28;20395;-45
2021/12/24 04:27:33;;;;;;;40.05;13.18;;;;;;;11.23;70.02;100356.50;5193298;28;20414;-45
2021/12/24 04:30:10;;;;;;;39.73;13.10;;;;;;;11.26;69.94;100366.75;5196496;28;20425;-44
2021/12/24 04:32:57;;;;;;;33.90;12.73;;;;;;;11.24;70.11;100366.94;5183581;28;20419;-45
2021/12/24 04:35:40;;;;;;;44.70;12.07;;;;;;;11.25;69.88;100363.28;5186929;28;20939;-45
2021/12/24 04:52:34;;;;;;;35.83;11.48;;;;;;;11.12;69.86;100357.69;5196499;28;20447;-44
2021/12/24 05:03:41;;;;;;;39.60;10.27;;;;;;;11.16;69.81;100374.03;5195742;28;20426;-44
2021/12/24 05:06:27;;;;;;;42.97;10.95;;;;;;;11.14;69.67;100368.88;5189659;28;20437;-43
2021/12/24 05:09:06;;;;;;;44.55;10.93;;;;;;;11.12;69.55;100364.75;5183727;28;20910;-47
2021/12/24 05:11:39;;;;;;;47.13;10.55;;;;;;;11.10;69.67;100372.03;5191194;28;20486;-45
2021/12/24 05:14:15;;;;;;;38.45;9.88;;;;;;;11.05;69.56;100372.50;5202988;28;20421;-43
2021/12/24 05:16:51;;;;;;;42.00;9.82;;;;;;;11.03;69.58;100377.97;5194314;28;20432;-43
2021/12/24 05:22:13;;;;;;;33.63;9.13;;;;;;;11.01;69.61;100377.31;5191944;28;20885;-46
2021/12/24 05:24:45;;;;;;;35.10;8.68;;;;;;;10.98;69.48;100372.34;5168070;28;20437;-45
2021/12/24 05:27:18;;;;;;;39.33;9.75;;;;;;;10.94;69.44;100365.75;5181960;28;20448;-45
2021/12/24 05:29:50;;;;;;;42.70;9.77;;;;;;;10.90;69.45;100369.72;5174779;28;21951;-44
2021/12/24 05:32:24;;;;;;;36.20;9.02;;;;;;;10.89;69.40;100361.94;5168338;28;20435;-51
2021/12/24 05:34:56;;;;;;;41.70;9.48;;;;;;;10.87;69.40;100367.41;5177708;28;20593;-45
2021/12/24 05:37:28;;;;;;;35.10;8.98;;;;;;;10.87;69.46;100363.91;5183944;28;20415;-45
2021/12/24 05:40:01;;;;;;;47.28;9.20;;;;;;;10.86;69.45;100363.09;5186577;28;21245;-45
2021/12/24 05:42:33;;;;;;;41.67;9.15;;;;;;;10.80;69.36;100369.03;5185422;28;20429;-42
2021/12/24 05:45:07;;;;;;;38.65;10.05;;;;;;;10.78;69.31;100365.75;5180554;28;20412;-45
2021/12/24 05:47:41;;;;;;;43.97;9.90;;;;;;;10.74;69.85;100361.75;5194078;28;20424;-43
2021/12/24 05:50:13;;;;;;;43.80;10.33;;;;;;;10.73;69.40;100365.38;5184662;28;20427;-44
2021/12/24 05:52:45;;;;;;;32.43;8.60;;;;;;;10.70;69.37;100371.00;5176054;28;20429;-42
2021/12/24 05:55:18;;;;;;;39.25;8.98;;;;;;;10.66;69.34;100382.88;5187246;28;20411;-43
2021/12/24 05:57:51;;;;;;;40.42;9.48;;;;;;;10.63;69.37;100377.91;5188172;28;20419;-44
2021/12/24 06:00:23;;;;;;;37.30;8.60;;;;;;;10.61;69.27;100380.69;5188710;28;20526;-42
2021/12/24 06:02:57;;;;;;;50.10;10.32;;;;;;;10.56;69.26;100383.00;5194264;28;25630;-42
2021/12/24 06:05:29;;;;;;;45.20;8.38;;;;;;;10.51;69.36;100372.94;5181395;28;20538;-43
2021/12/24 06:08:02;;;;;;;36.15;8.98;;;;;;;10.54;69.32;100379.69;5181882;28;20421;-44
2021/12/24 06:10:36;;;;;;;42.45;8.48;;;;;;;10.52;69.23;100384.31;5187040;28;20808;-43
2021/12/24 06:13:09;;;;;;;42.15;8.23;;;;;;;10.51;69.25;100383.47;5177450;28;20936;-43
2021/12/24 06:15:46;;;;;;;39.40;8.82;;;;;;;10.40;69.30;100367.94;5183043;28;20413;-43
2021/12/24 06:18:22;;;;;;;41.97;12.50;;;;;;;10.48;69.32;100381.16;5189898;28;20510;-43
2021/12/24 06:20:57;;;;;;;47.28;15.45;;;;;;;10.48;69.20;100383.81;5178835;28;20756;-43
2021/12/24 06:23:29;;;;;;;40.40;8.52;;;;;;;10.49;69.18;100376.72;5197763;28;20481;-44
2021/12/24 06:26:03;;;;;;;41.47;8.73;;;;;;;10.47;69.16;100378.69;5180644;28;20406;-43
2021/12/24 06:28:37;;;;;;;54.08;9.82;;;;;;;10.45;69.22;100384.13;5174099;28;20409;-44
2021/12/24 06:31:09;;;;;;;46.95;8.68;;;;;;;10.46;69.13;100388.41;5184708;28;20418;-44
2021/12/24 06:33:43;;;;;;;45.63;8.70;;;;;;;10.46;69.14;100383.13;5181558;28;20415;-44
2021/12/24 06:36:15;;;;;;;43.22;9.02;;;;;;;10.46;69.05;100385.78;5183186;28;20780;-44
2021/12/24 06:38:47;;;;;;;42.17;9.02;;;;;;;10.48;69.12;100381.16;5187280;28;20522;-43
2021/12/24 06:41:20;;;;;;;41.75;9.27;;;;;;;10.49;69.16;100393.38;5178629;28;20553;-43
2021/12/24 06:43:52;;;;;;;43.70;8.68;;;;;;;10.46;68.99;100392.88;5177606;28;20921;-43
2021/12/24 06:46:24;;;;;;;45.38;8.68;;;;;;;10.43;69.08;100387.91;5173940;28;20424;-43
2021/12/24 06:48:58;;;;;;;39.83;7.25;;;;;;;10.41;69.07;100389.91;5175424;28;20404;-43
2021/12/24 06:51:31;;;;;;;42.78;8.43;;;;;;;10.33;68.95;100393.31;5179296;28;20511;-42
2021/12/24 06:54:04;;;;;;;53.40;9.35;;;;;;;10.38;69.06;100396.31;5181819;28;20757;-43
2021/12/24 06:56:36;;;;;;;40.60;8.80;;;;;;;10.37;68.99;100394.66;5179892;28;20508;-40
2021/12/24 06:59:08;;;;;;;43.15;8.05;;;;;;;10.41;68.86;100398.63;5177151;28;20399;-44
2021/12/24 07:01:41;;;;;;;47.53;8.45;;;;;;;10.33;69.08;100401.25;5182509;28;20481;-44
2021/12/24 07:04:15;;;;;;;44.67;7.63;;;;;;;10.43;69.38;100409.03;5176961;28;20411;-43
2021/12/24 07:06:47;;;;;;;43.42;9.32;;;;;;;10.44;68.93;100398.31;5174789;28;20907;-44
2021/12/24 07:09:20;;;;;;;48.60;9.90;;;;;;;10.47;68.94;100405.09;5174414;28;20593;-45
2021/12/24 07:11:52;;;;;;;45.78;9.20;;;;;;;10.49;69.18;100406.56;5182105;28;21839;-43
2021/12/24 07:14:25;;;;;;;54.65;9.73;;;;;;;10.51;68.88;100409.88;5170875;28;20424;-42
2021/12/24 07:16:57;;;;;;;39.08;8.65;;;;;;;10.27;69.01;100378.94;5169002;28;20393;-43
2021/12/24 07:19:31;;;;;;;41.80;8.82;;;;;;;10.54;69.02;100412.22;5173682;28;20424;-45
2021/12/24 07:22:04;;;;;;;47.50;8.73;;;;;;;10.55;68.98;100408.56;5172450;28;20539;-43
2021/12/24 07:24:36;;;;;;;45.47;9.43;;;;;;;10.58;68.83;100392.41;5169513;28;20490;-39
2021/12/24 07:27:09;;;;;;;44.20;9.73;;;;;;;10.60;68.79;100408.09;5173425;28;20413;-42
2021/12/24 07:29:41;;;;;;;44.17;9.10;;;;;;;10.60;68.90;100411.56;5173037;28;20419;-42
2021/12/24 07:32:14;;;;;;;37.10;8.60;;;;;;;10.60;68.92;100400.19;5166154;28;20526;-44
2021/12/24 07:34:47;;;;;;;35.83;8.60;;;;;;;10.61;68.88;100402.66;5178349;28;20429;-44
2021/12/24 07:37:20;;;;;;;42.97;10.38;;;;;;;10.57;68.82;100390.75;5175229;28;20426;-43
2021/12/24 07:39:52;;;;;;;42.85;10.20;;;;;;;10.64;68.94;100406.78;5169343;28;20426;-45
2021/12/24 07:42:26;;;;;;;48.78;8.98;;;;;;;10.66;68.79;100396.91;5184919;28;20730;-43
2021/12/24 07:44:59;;;;;;;42.75;9.95;;;;;;;10.68;68.83;100402.81;5184518;28;20413;-45
2021/12/24 07:47:36;;;;;;;44.85;10.80;;;;;;;10.60;68.84;100398.38;5189202;28;20426;-43
2021/12/24 07:51:55;;;;;;;45.80;9.50;;;;;;;10.68;68.82;100402.00;5177806;28;20840;-42
2021/12/24 07:53:12;;;;;;;43.08;9.57;;;;;;;10.66;68.86;100401.38;5182285;28;20415;-44
2021/12/24 07:55:45;;;;;;;52.80;10.48;;;;;;;10.74;68.79;100409.28;5166831;28;21009;-44
2021/12/24 07:58:18;;;;;;;53.15;10.45;;;;;;;10.73;68.85;100405.00;5176797;28;20421;-43
2021/12/24 08:00:51;;;;;;;46.97;9.40;;;;;;;10.75;68.87;100410.97;5185902;28;20430;-42
2021/12/24 08:03:27;;;;;;;40.63;9.07;;;;;;;10.75;68.89;100409.13;5171844;28;20853;-44
2021/12/24 08:06:01;;;;;;;45.97;8.75;;;;;;;10.71;68.87;100406.97;5182707;28;20415;-43
2021/12/24 08:08:33;;;;;;;32.63;8.75;;;;;;;10.75;68.98;100408.31;5174199;28;20425;-45
2021/12/24 08:11:05;;;;;;;41.97;9.67;;;;;;;10.79;68.92;100415.75;5176488;28;20543;-45
2021/12/24 08:13:38;;;;;;;47.57;9.07;;;;;;;10.80;68.88;100412.09;5181017;28;20464;-43
2021/12/24 08:16:10;;;;;;;39.25;9.27;;;;;;;10.81;68.84;100415.59;5171308;28;20418;-44
2021/12/24 08:18:44;;;;;;;43.40;8.52;;;;;;;10.83;68.80;100417.06;5176083;28;20455;-43
2021/12/24 08:21:18;;;;;;;46.65;8.80;;;;;;;10.86;68.73;100410.63;5188506;28;20421;-44
2021/12/24 08:23:51;;;;;;;42.85;8.55;;;;;;;10.87;68.82;100407.03;5205473;28;20417;-44
2021/12/24 08:26:23;;;;;;;33.17;8.52;;;;;;;10.89;68.77;100407.66;5211297;28;20836;-44
2021/12/24 08:28:56;;;;;;;43.97;9.48;;;;;;;10.87;68.72;100407.03;5212271;28;20523;-45
2021/12/24 08:31:29;;;;;;;50.60;9.75;;;;;;;10.86;68.82;100400.06;5207780;28;20414;-45
2021/12/24 08:34:01;;;;;;;44.70;8.77;;;;;;;10.91;68.83;100413.63;5204156;28;20480;-44
2021/12/24 08:36:36;;;;;;;44.80;9.80;;;;;;;10.91;68.75;100405.72;5195849;28;20422;-44
2021/12/24 08:39:08;;;;;;;44.00;10.10;;;;;;;10.90;68.76;100417.28;5195104;28;20402;-44
2021/12/24 08:41:40;;;;;;;42.15;9.13;;;;;;;10.89;68.82;100412.94;5196156;28;20405;-46
2021/12/24 08:44:13;;;;;;;37.50;8.07;;;;;;;10.89;68.83;100410.31;5195770;28;20500;-43
2021/12/24 08:46:45;;;;;;;39.92;9.25;;;;;;;10.81;68.73;100394.47;5200940;28;20449;-43
2021/12/24 08:49:18;;;;;;;42.90;9.52;;;;;;;10.90;68.91;100398.78;5201611;28;20965;-43
2021/12/24 08:51:53;;;;;;;37.63;9.15;;;;;;;10.89;68.71;100398.94;5197933;28;20426;-44
2021/12/24 08:54:26;;;;;;;43.72;9.05;;;;;;;10.91;68.58;100392.50;5202614;28;20846;-43
2021/12/24 08:56:58;;;;;;;48.70;9.68;;;;;;;10.94;68.66;100394.00;5202281;28;20426;-42
2021/12/24 08:59:31;;;;;;;39.42;9.45;;;;;;;10.95;68.64;100395.63;5202764;28;20425;-42
2021/12/24 09:02:04;;;;;;;56.70;10.93;;;;;;;10.96;68.73;100392.84;5203426;28;20758;-44
2021/12/24 09:04:36;;;;;;;47.08;12.02;;;;;;;10.88;68.84;100379.59;5203307;28;20414;-45
2021/12/24 09:07:10;;;;;;;47.22;9.93;;;;;;;10.98;68.74;100396.13;5198372;28;20422;-43
2021/12/24 09:09:42;;;;;;;45.42;11.20;;;;;;;10.99;68.76;100392.50;5203435;28;20419;-43
2021/12/24 09:12:15;;;;;;;53.50;10.02;;;;;;;11.00;68.68;100388.06;5201938;28;20429;-45
2021/12/24 09:14:47;;;;;;;45.47;9.67;;;;;;;11.02;68.58;100388.69;5195553;28;20424;-45
2021/12/24 09:17:20;;;;;;;46.47;9.37;;;;;;;11.02;68.72;100394.81;5201263;28;20450;-46
2021/12/24 09:19:58;;;;;;;52.25;10.70;;;;;;;11.03;68.68;100391.19;5198767;28;20883;-46
2021/12/24 09:22:34;;;;;;;48.40;10.93;;;;;;;11.03;68.65;100391.19;5199745;28;20419;-44
2021/12/24 09:25:08;;;;;;;49.35;10.90;;;;;;;10.96;68.57;100379.63;5195036;28;20463;-49
2021/12/24 09:27:41;;;;;;;52.15;10.63;;;;;;;11.05;68.59;100397.13;5197590;28;20426;-44
2021/12/24 09:30:13;;;;;;;33.13;8.23;;;;;;;11.07;68.63;100392.50;5203458;28;20459;-43
2021/12/24 09:32:46;;;;;;;43.93;10.97;;;;;;;10.98;68.68;100375.00;5198313;28;20913;-44
2021/12/24 09:35:19;;;;;;;49.08;10.07;;;;;;;11.10;68.60;100387.91;5210800;28;20435;-46
2021/12/24 09:37:53;;;;;;;46.90;10.68;;;;;;;11.11;68.62;100395.66;5211797;28;20453;-45
2021/12/24 09:40:30;;;;;;;46.90;11.80;;;;;;;11.12;68.66;100399.97;5214702;28;20934;-44
2021/12/24 09:43:03;;;;;;;42.35;9.82;;;;;;;11.11;68.57;100392.19;5211115;28;20434;-45
2021/12/24 09:45:36;;;;;;;46.42;10.38;;;;;;;11.11;68.50;100397.47;5218197;28;20984;-43
2021/12/24 09:48:08;;;;;;;48.28;10.65;;;;;;;11.10;68.48;100395.81;5219312;28;20415;-48
2021/12/24 09:50:41;;;;;;;52.45;11.23;;;;;;;11.11;68.57;100386.91;5207431;28;20512;-43
2021/12/24 09:53:15;;;;;;;43.60;10.90;;;;;;;11.11;68.55;100384.25;5213447;28;20826;-45
2021/12/24 09:55:47;;;;;;;43.83;10.93;;;;;;;11.01;68.50;100384.41;5196896;28;20418;-45
2021/12/24 09:58:20;;;;;;;49.60;11.57;;;;;;;11.13;68.60;100384.91;5193822;28;20434;-43
2021/12/24 10:00:52;;;;;;;38.78;10.35;;;;;;;11.14;68.58;100391.84;5213954;28;20772;-43
2021/12/24 10:03:32;;;;;;;46.45;10.65;;;;;;;11.16;68.59;100390.69;5201595;28;20429;-44
2021/12/24 10:06:06;;;;;;;42.65;11.18;;;;;;;11.15;68.60;100399.63;5199163;28;20528;-45
2021/12/24 10:08:39;;;;;;;47.78;11.13;;;;;;;11.19;68.55;100394.84;5195352;28;20424;-46
2021/12/24 10:11:14;;;;;;;45.60;10.95;;;;;;;11.19;68.66;100390.38;5200277;28;20510;-44
2021/12/24 10:13:46;;;;;;;41.50;11.77;;;;;;;11.18;68.59;100382.59;5202302;28;20425;-44
2021/12/24 10:16:22;;;;;;;45.08;9.95;;;;;;;11.24;68.59;100400.44;5203414;28;20433;-45
2021/12/24 10:18:57;;;;;;;47.92;11.65;;;;;;;11.20;68.59;100391.19;5196098;28;20423;-44
2021/12/24 10:21:32;;;;;;;52.25;10.05;;;;;;;11.29;68.44;100400.78;5200221;28;20747;-43
2021/12/24 10:24:14;;;;;;;44.17;10.20;;;;;;;11.30;68.53;100399.78;5195754;28;20797;-45
2021/12/24 10:26:51;;;;;;;49.20;10.63;;;;;;;11.19;68.55;100386.91;5206889;28;20416;-44
2021/12/24 10:29:30;;;;;;;45.75;11.35;;;;;;;11.19;68.51;100392.19;5214534;28;20984;-46
2021/12/24 10:32:11;;;;;;;53.15;11.43;;;;;;;11.28;68.58;100399.97;5201111;28;20415;-44
2021/12/24 10:34:45;;;;;;;46.35;11.07;;;;;;;11.29;68.63;100400.78;5204915;28;20420;-43
2021/12/24 10:37:22;;;;;;;58.43;13.43;;;;;;;11.33;68.60;100399.44;5205834;28;20424;-43
2021/12/24 10:39:58;;;;;;;50.03;11.32;;;;;;;11.34;68.48;100408.22;5200414;28;20445;-45
2021/12/24 10:42:35;;;;;;;38.97;10.77;;;;;;;11.34;68.49;100406.41;5198339;28;20865;-44
2021/12/24 10:45:16;;;;;;;54.80;11.93;;;;;;;11.39;68.41;100411.19;5196006;28;20409;-50
2021/12/24 10:47:48;;;;;;;43.87;11.53;;;;;;;11.42;68.28;100416.97;5198411;28;20508;-44
2021/12/24 10:50:31;;;;;;;44.08;10.68;;;;;;;11.43;68.45;100408.06;5200774;28;20421;-44
2021/12/24 10:53:18;;;;;;;59.75;12.13;;;;;;;11.40;68.47;100407.56;5198297;28;20778;-43
2021/12/24 10:55:54;;;;;;;50.60;12.70;;;;;;;11.31;68.22;100394.34;5199842;28;20506;-46
2021/12/24 10:58:30;;;;;;;41.28;12.80;;;;;;;11.42;68.42;100400.28;5200945;28;22463;-44
2021/12/24 11:01:04;;;;;;;39.97;11.75;;;;;;;11.46;68.47;100406.91;5200330;28;20906;-45
2021/12/24 11:03:37;;;;;;;44.72;11.05;;;;;;;11.46;68.39;100412.19;5196971;28;20896;-44
2021/12/24 11:06:13;;;;;;;43.35;11.80;;;;;;;11.48;68.40;100411.00;5197326;28;20423;-45
2021/12/24 11:09:16;;;;;;;41.60;11.18;;;;;;;11.49;68.38;100410.03;5196573;28;20421;-44
2021/12/24 11:11:49;;;;;;;58.88;14.48;;;;;;;11.48;68.47;100407.53;5196355;28;20429;-45
2021/12/24 11:14:22;;;;;;;48.90;11.57;;;;;;;11.27;68.43;100371.03;5201090;28;20424;-44
2021/12/24 11:16:54;;;;;;;44.30;11.53;;;;;;;11.54;68.40;100405.06;5199074;28;20406;-44
2021/12/24 11:19:28;;;;;;;46.15;11.52;;;;;;;11.56;68.41;100396.97;5195328;28;22775;-43
2021/12/24 11:22:05;;;;;;;37.95;9.75;;;;;;;11.57;68.41;100405.72;5195422;28;20437;-44
2021/12/24 11:24:38;;;;;;;36.15;9.82;;;;;;;11.56;68.47;100404.09;5187833;28;20533;-48
2021/12/24 11:27:12;;;;;;;40.97;11.00;;;;;;;11.56;68.53;100402.25;5196529;28;20417;-44
2021/12/24 11:29:44;;;;;;;33.47;10.00;;;;;;;11.56;68.55;100406.72;5189208;28;20923;-44
2021/12/24 11:32:16;;;;;;;31.58;9.27;;;;;;;11.56;68.52;100409.38;5189536;28;20433;-44
2021/12/24 11:34:49;;;;;;;32.85;9.02;;;;;;;11.53;68.53;100407.88;5193939;28;20407;-44
2021/12/24 11:37:21;;;;;;;40.83;10.13;;;;;;;11.49;68.66;100399.47;5191521;28;20934;-45
2021/12/24 11:39:53;;;;;;;45.92;10.70;;;;;;;11.48;68.50;100405.72;5194498;28;20519;-46
2021/12/24 11:42:32;;;;;;;34.00;9.93;;;;;;;11.48;68.42;100405.72;5191393;28;20427;-45
2021/12/24 11:45:06;;;;;;;32.13;9.27;;;;;;;11.44;68.56;100406.25;5193956;28;20449;-45
2021/12/24 11:47:39;;;;;;;35.30;9.60;;;;;;;11.45;68.60;100410.53;5189406;28;20406;-49
2021/12/24 11:50:11;;;;;;;38.78;9.82;;;;;;;11.45;68.56;100400.75;5195295;28;20417;-44
2021/12/24 11:52:46;;;;;;;40.08;11.10;;;;;;;11.47;68.65;100390.88;5198775;28;21311;-44
2021/12/24 11:55:20;;;;;;;41.72;11.02;;;;;;;11.51;68.60;100396.63;5194068;28;20433;-43
2021/12/24 11:58:01;;;;;;;33.10;10.20;;;;;;;11.53;68.67;100397.31;5194802;28;20422;-44
2021/12/24 12:00:39;;;;;;;39.25;9.82;;;;;;;11.57;68.61;100392.50;5199177;28;20452;-44
2021/12/24 12:03:30;;;;;;;35.00;7.72;;;;;;;11.47;68.54;100388.22;5186181;28;20415;-44
2021/12/24 12:06:05;;;;;;;40.30;9.75;;;;;;;11.51;68.58;100389.53;5198214;28;20418;-46
2021/12/24 12:08:41;;;;;;;30.55;8.82;;;;;;;11.56;68.45;100393.50;5186307;28;20414;-50
2021/12/24 12:11:20;;;;;;;30.55;8.45;;;;;;;11.58;68.40;100394.97;5196154;28;20428;-45
2021/12/24 12:13:59;;;;;;;25.33;8.25;;;;;;;11.58;68.48;100404.72;5196352;28;20413;-45
2021/12/24 12:16:53;;;;;;;27.45;7.85;;;;;;;11.52;68.42;100401.78;5194186;28;20494;-45
2021/12/24 12:19:32;;;;;;;28.58;8.20;;;;;;;11.51;68.39;100397.47;5194458;28;20407;-43
2021/12/24 12:22:19;;;;;;;28.48;8.35;;;;;;;11.49;68.40;100402.09;5197227;28;20838;-44
2021/12/24 12:27:45;;;;;;;19.83;7.35;;;;;;;11.44;68.49;100407.06;5180374;28;20732;-44
2021/12/24 12:30:36;;;;;;;27.80;7.70;;;;;;;11.39;68.42;100401.44;5199150;28;21486;-45
2021/12/24 12:33:13;;;;;;;26.83;7.28;;;;;;;11.45;68.32;100413.16;5195317;28;20429;-50
2021/12/24 12:35:49;;;;;;;21.42;7.00;;;;;;;11.44;68.22;100412.34;5199731;28;20430;-46
2021/12/24 12:38:33;;;;;;;24.07;6.67;;;;;;;11.18;68.15;100369.38;5187266;28;20947;-43
2021/12/24 12:41:32;;;;;;;19.30;6.32;;;;;;;11.25;68.06;100383.59;5194680;28;20986;-43
2021/12/24 12:44:07;;;;;;;14.70;5.28;;;;;;;11.45;68.03;100416.63;5193502;28;20848;-45
2021/12/24 12:46:47;;;;;;;14.03;5.13;;;;;;;11.44;68.08;100425.56;5196823;28;20787;-41
2021/12/24 12:49:31;;;;;;;12.67;5.40;;;;;;;11.44;68.04;100419.47;5181430;28;20727;-46
2021/12/24 12:52:07;;;;;;;18.87;5.83;;;;;;;11.43;68.02;100413.34;5185192;28;20525;-44
2021/12/24 12:54:43;;;;;;;11.63;3.97;;;;;;;11.47;67.90;100416.47;5185022;28;20424;-44
2021/12/24 12:57:25;;;;;;;11.35;4.13;;;;;;;11.48;67.79;100418.13;5190776;28;20924;-44
2021/12/24 13:00:27;;;;;;;10.10;3.75;;;;;;;11.50;67.83;100422.25;5196791;28;20510;-46
2021/12/24 13:03:08;;;;;;;10.98;4.05;;;;;;;11.49;67.79;100417.97;5193739;28;20848;-47
2021/12/24 13:06:08;;;;;;;13.98;4.13;;;;;;;11.51;67.71;100426.56;5193482;28;20413;-45